createdAt,value
2024-05-09T00:02:08.217Z,12.40
2024-05-09T00:04:38.711Z,14.60
2024-05-09T00:07:10.972Z,14.48
2024-05-09T00:09:41.035Z,16.38
2024-05-09T00:12:13.772Z,15.55
2024-05-09T00:14:43.832Z,15.15
2024-05-09T00:17:13.955Z,16.05
2024-05-09T00:19:46.910Z,14.57
2024-05-09T00:22:17.242Z,15.07
2024-05-09T00:24:47.317Z,16.85
2024-05-09T00:27:20.960Z,16.52
2024-05-09T00:29:52.389Z,16.23
2024-05-09T00:32:22.829Z,14.73
2024-05-09T00:34:53.033Z,16.42
2024-05-09T00:37:23.325Z,15.77
2024-05-09T00:39:53.501Z,14.23
2024-05-09T00:42:26.225Z,17.88
2024-05-09T00:44:56.430Z,15.65
2024-05-09T00:47:29.769Z,16.58
2024-05-09T00:50:00.347Z,16.00
2024-05-09T00:52:31.255Z,15.32
2024-05-09T00:55:02.481Z,15.98
2024-05-09T00:57:35.359Z,16.83
2024-05-09T01:00:07.700Z,16.58
2024-05-09T01:02:39.318Z,17.00
2024-05-09T01:05:10.594Z,17.08
2024-05-09T01:07:41.443Z,17.90
2024-05-09T01:10:17.427Z,18.70
2024-05-09T01:12:56.484Z,17.95
2024-05-09T01:15:29.750Z,24.17
2024-05-09T01:18:01.845Z,19.88
2024-05-09T01:20:40.864Z,14.98
2024-05-09T01:23:16.874Z,17.58
2024-05-09T01:25:47.313Z,17.95
2024-05-09T01:28:17.370Z,21.70
2024-05-09T01:30:47.304Z,17.90
2024-05-09T01:33:17.845Z,18.40
2024-05-09T01:35:47.752Z,15.75
2024-05-09T01:38:20.695Z,14.95
2024-05-09T01:40:51.703Z,16.65
2024-05-09T01:43:21.970Z,19.23
2024-05-09T01:45:52.022Z,18.65
2024-05-09T01:48:22.148Z,16.17
2024-05-09T01:50:52.343Z,18.38
2024-05-09T01:53:25.060Z,17.85
2024-05-09T01:55:55.391Z,19.85
2024-05-09T01:58:25.559Z,15.77
2024-05-09T02:00:56.149Z,17.23
2024-05-09T02:03:26.429Z,21.10
2024-05-09T02:05:56.523Z,17.88
2024-05-09T02:08:29.386Z,18.17
2024-05-09T02:10:59.735Z,18.95
2024-05-09T02:13:29.713Z,20.67
2024-05-09T02:15:59.973Z,21.55
2024-05-09T02:18:30.054Z,20.42
2024-05-09T02:21:01.685Z,23.00
2024-05-09T02:23:34.506Z,22.65
2024-05-09T02:26:04.617Z,24.23
2024-05-09T02:28:34.591Z,21.33
2024-05-09T02:31:04.730Z,20.38
2024-05-09T02:33:34.905Z,20.77
2024-05-09T02:36:05.562Z,18.10
2024-05-09T02:38:35.812Z,21.05
2024-05-09T02:41:06.289Z,24.35
2024-05-09T02:43:33.942Z,23.60
2024-05-09T02:46:04.266Z,18.27
2024-05-09T02:48:32.057Z,22.27
2024-05-09T02:51:04.917Z,21.85
2024-05-09T02:53:38.217Z,23.13
2024-05-09T02:56:11.823Z,22.52
2024-05-09T02:58:39.450Z,29.48
2024-05-09T03:01:09.588Z,24.17
2024-05-09T03:03:37.134Z,26.67
2024-05-09T03:06:10.882Z,21.23
2024-05-09T03:08:44.779Z,22.40
2024-05-09T03:11:23.726Z,21.85
2024-05-09T03:13:51.604Z,23.20
2024-05-09T03:16:25.122Z,23.15
2024-05-09T03:18:55.685Z,21.08
2024-05-09T03:21:27.326Z,22.58
2024-05-09T03:23:58.082Z,24.30
2024-05-09T03:26:28.095Z,25.60
2024-05-09T03:28:55.602Z,28.25
2024-05-09T03:31:28.776Z,24.17
2024-05-09T03:33:56.237Z,22.08
2024-05-09T03:36:26.550Z,21.98
2024-05-09T03:38:56.825Z,26.20
2024-05-09T03:41:29.819Z,22.80
2024-05-09T03:44:00.175Z,23.65
2024-05-09T03:46:30.877Z,26.85
2024-05-09T03:49:01.498Z,25.20
2024-05-09T03:51:29.333Z,22.83
2024-05-09T03:54:00.706Z,23.25
2024-05-09T03:56:31.110Z,25.60
2024-05-09T03:59:01.501Z,26.38
2024-05-09T04:01:30.113Z,27.90
2024-05-09T04:04:00.172Z,24.80
2024-05-09T04:06:27.534Z,25.75
2024-05-09T04:08:57.562Z,25.77
2024-05-09T04:11:25.707Z,24.60
2024-05-09T04:13:58.710Z,27.25
2024-05-09T04:16:26.328Z,24.25
2024-05-09T04:18:56.939Z,22.02
2024-05-09T04:21:24.889Z,23.42
2024-05-09T04:23:57.516Z,27.90
2024-05-09T04:26:25.208Z,27.13
2024-05-09T04:28:58.267Z,25.10
2024-05-09T04:31:25.653Z,27.33
2024-05-09T04:33:55.711Z,25.35
2024-05-09T04:36:26.202Z,25.10
2024-05-09T04:38:57.215Z,30.15
2024-05-09T04:41:24.909Z,23.83
2024-05-09T04:43:57.964Z,26.23
2024-05-09T04:46:28.203Z,26.13
2024-05-09T04:48:58.577Z,28.60
2024-05-09T04:51:26.075Z,25.80
2024-05-09T04:53:56.517Z,26.00
2024-05-09T04:56:24.027Z,28.27
2024-05-09T04:58:54.056Z,25.35
2024-05-09T05:01:22.466Z,25.50
2024-05-09T05:03:56.134Z,25.33
2024-05-09T05:08:54.427Z,25.38
2024-05-09T05:11:22.218Z,23.25
2024-05-09T05:13:52.335Z,25.23
2024-05-09T05:16:22.109Z,25.77
2024-05-09T05:18:55.122Z,27.48
2024-05-09T05:21:25.979Z,30.05
2024-05-09T05:23:56.433Z,32.50
2024-05-09T05:26:24.001Z,24.52
2024-05-09T05:28:56.632Z,25.45
2024-05-09T05:31:27.182Z,26.35
2024-05-09T05:34:00.226Z,25.73
2024-05-09T05:36:30.260Z,25.35
2024-05-09T05:39:00.123Z,30.23
2024-05-09T05:41:27.585Z,29.10
2024-05-09T05:43:57.716Z,41.20
2024-05-09T05:46:25.165Z,31.38
2024-05-09T05:48:55.554Z,28.30
2024-05-09T05:51:25.873Z,30.63
2024-05-09T05:53:56.177Z,31.17
2024-05-09T05:56:23.767Z,30.70
2024-05-09T05:58:53.784Z,31.90
2024-05-09T06:01:21.217Z,32.38
2024-05-09T06:03:51.632Z,35.58
2024-05-09T06:06:19.235Z,33.25
2024-05-09T06:08:52.430Z,31.23
2024-05-09T06:11:19.843Z,36.20
2024-05-09T06:13:50.055Z,35.65
2024-05-09T06:16:17.561Z,37.53
2024-05-09T06:18:47.990Z,35.80
2024-05-09T06:21:19.484Z,34.63
2024-05-09T06:23:53.446Z,35.75
2024-05-09T06:26:21.138Z,32.70
2024-05-09T06:28:51.318Z,34.80
2024-05-09T06:31:18.836Z,35.58
2024-05-09T06:33:49.168Z,29.95
2024-05-09T06:36:17.215Z,33.30
2024-05-09T06:38:49.757Z,37.10
2024-05-09T06:41:19.810Z,32.47
2024-05-09T06:43:50.394Z,29.52
2024-05-09T06:46:18.361Z,36.35
2024-05-09T06:48:49.304Z,32.28
2024-05-09T06:51:17.157Z,33.28
2024-05-09T06:53:47.474Z,32.63
2024-05-09T06:56:15.471Z,32.30
2024-05-09T06:58:48.283Z,31.98
2024-05-09T07:01:15.777Z,32.13
2024-05-09T07:03:46.204Z,30.98
2024-05-09T07:06:19.613Z,31.73
2024-05-09T07:08:51.885Z,30.85
2024-05-09T07:11:19.900Z,31.25
2024-05-09T07:13:52.454Z,30.67
2024-05-09T07:16:20.150Z,30.65
2024-05-09T07:18:55.070Z,28.92
2024-05-09T07:21:22.827Z,27.75
2024-05-09T07:23:52.995Z,27.40
2024-05-09T07:26:20.486Z,28.45
2024-05-09T07:28:53.326Z,26.80
2024-05-09T07:31:20.916Z,25.90
2024-05-09T07:33:51.013Z,26.33
2024-05-09T07:36:18.721Z,23.52
2024-05-09T07:38:48.833Z,26.17
2024-05-09T07:41:16.716Z,22.85
2024-05-09T07:43:46.809Z,21.65
2024-05-09T07:47:14.187Z,26.98
2024-05-09T07:50:54.065Z,23.65
2024-05-09T07:53:25.372Z,21.67
2024-05-09T07:54:53.397Z,20.33
2024-05-09T07:57:23.189Z,16.38
2024-05-09T07:59:54.266Z,15.98
2024-05-09T08:02:24.553Z,14.85
2024-05-09T08:04:54.712Z,15.85
2024-05-09T08:07:22.205Z,16.45
2024-05-09T08:09:52.312Z,11.93
2024-05-09T08:12:19.811Z,8.80
2024-05-09T08:14:49.938Z,6.50
2024-05-09T08:17:17.646Z,7.07
2024-05-09T08:19:51.504Z,8.52
2024-05-09T08:22:21.677Z,6.25
2024-05-09T08:24:49.396Z,8.07
2024-05-09T08:27:20.803Z,6.78
2024-05-09T08:29:48.300Z,8.35
2024-05-09T08:32:18.373Z,10.25
2024-05-09T08:34:48.554Z,8.10
2024-05-09T08:37:22.422Z,8.40
2024-05-09T08:39:52.305Z,8.88
2024-05-09T08:42:26.534Z,8.85
2024-05-09T08:44:54.776Z,9.30
2024-05-09T08:47:25.110Z,15.60
2024-05-09T08:49:58.695Z,16.08
2024-05-09T08:52:29.187Z,17.27
2024-05-09T08:54:56.952Z,19.25
2024-05-09T08:57:29.259Z,16.38
2024-05-09T09:00:07.996Z,17.20
2024-05-09T09:02:41.638Z,13.60
2024-05-09T09:05:17.035Z,16.88
2024-05-09T09:07:48.652Z,18.83
2024-05-09T09:10:24.967Z,16.58
2024-05-09T09:13:04.993Z,21.88
2024-05-09T09:15:33.217Z,22.58
2024-05-09T09:18:09.536Z,17.90
2024-05-09T09:20:42.043Z,21.33
2024-05-09T09:23:12.699Z,15.23
2024-05-09T09:25:40.841Z,11.85
2024-05-09T09:28:12.393Z,12.63
2024-05-09T09:33:12.500Z,13.10
2024-05-09T09:35:45.534Z,10.57
2024-05-09T09:38:21.138Z,15.43
2024-05-09T09:40:50.692Z,11.73
2024-05-09T09:43:23.258Z,22.90
2024-05-09T09:45:53.157Z,22.88
2024-05-09T09:48:24.865Z,20.73
2024-05-09T09:50:55.639Z,18.33
2024-05-09T09:53:26.587Z,19.48
2024-05-09T09:55:54.651Z,19.35
2024-05-09T09:58:25.680Z,20.05
2024-05-09T10:00:55.420Z,21.92
2024-05-09T10:03:25.794Z,19.45
2024-05-09T10:05:56.972Z,17.45
2024-05-09T10:08:27.134Z,14.80
2024-05-09T10:10:55.616Z,15.13
2024-05-09T10:13:36.063Z,15.70
2024-05-09T10:16:09.449Z,17.45
2024-05-09T10:18:39.973Z,17.75
2024-05-09T10:21:20.345Z,17.50
2024-05-09T10:24:00.116Z,15.30
2024-05-09T10:26:32.810Z,15.40
2024-05-09T10:29:03.497Z,13.60
2024-05-09T10:31:31.438Z,13.50
2024-05-09T10:34:04.376Z,10.43
2024-05-09T10:36:43.072Z,12.63
2024-05-09T10:39:13.843Z,11.85
2024-05-09T10:41:41.434Z,7.80
2024-05-09T10:44:14.166Z,13.82
2024-05-09T10:46:41.986Z,12.60
2024-05-09T10:49:12.595Z,9.65
2024-05-09T10:51:45.128Z,10.88
2024-05-09T10:54:15.238Z,8.90
2024-05-09T10:56:44.964Z,10.13
2024-05-09T10:59:15.801Z,8.73
2024-05-09T11:01:43.711Z,12.75
2024-05-09T11:04:13.993Z,13.57
2024-05-09T11:06:46.678Z,8.60
2024-05-09T11:09:17.232Z,10.93
2024-05-09T11:11:44.956Z,8.85
2024-05-09T11:14:15.579Z,12.63
2024-05-09T11:16:43.455Z,13.02
2024-05-09T11:19:15.916Z,9.00
2024-05-09T11:21:51.389Z,11.77
2024-05-09T11:24:21.578Z,8.25
2024-05-09T11:26:48.996Z,9.63
2024-05-09T11:29:19.824Z,9.40
2024-05-09T11:31:47.785Z,8.93
2024-05-09T11:34:18.395Z,10.73
2024-05-09T11:36:48.822Z,9.43
2024-05-09T11:39:19.189Z,10.68
2024-05-09T11:41:46.935Z,7.78
2024-05-09T11:44:18.757Z,8.77
2024-05-09T11:46:46.477Z,10.43
2024-05-09T11:49:16.941Z,10.45
2024-05-09T11:51:44.708Z,9.52
2024-05-09T11:54:19.215Z,11.00
2024-05-09T11:56:46.856Z,9.50
2024-05-09T11:59:17.118Z,12.35
2024-05-09T12:01:44.641Z,9.98
2024-05-09T12:04:15.282Z,9.43
2024-05-09T12:06:42.957Z,9.90
2024-05-09T12:09:13.495Z,7.53
2024-05-09T12:11:44.261Z,8.55
2024-05-09T12:14:14.571Z,8.73
2024-05-09T12:16:42.392Z,7.13
2024-05-09T12:19:12.819Z,6.93
2024-05-09T12:21:40.719Z,14.73
2024-05-09T12:24:11.707Z,23.95
2024-05-09T12:26:44.611Z,8.25
2024-05-09T12:29:17.483Z,8.45
2024-05-09T12:31:44.974Z,8.95
2024-05-09T12:34:16.280Z,7.60
2024-05-09T12:36:44.316Z,8.80
2024-05-09T12:39:14.797Z,8.52
2024-05-09T12:41:45.058Z,8.55
2024-05-09T12:44:15.325Z,10.88
2024-05-09T12:46:43.028Z,9.15
2024-05-09T12:49:16.409Z,9.40
2024-05-09T12:51:44.722Z,7.63
2024-05-09T12:54:14.933Z,13.50
2024-05-09T12:56:45.164Z,8.68
2024-05-09T12:59:15.547Z,9.35
2024-05-09T13:01:47.742Z,8.25
2024-05-09T13:04:15.267Z,10.02
2024-05-09T13:06:45.817Z,6.57
2024-05-09T13:09:13.606Z,10.10
2024-05-09T13:11:43.918Z,7.32
2024-05-09T13:14:16.883Z,8.45
2024-05-09T13:16:47.230Z,9.20
2024-05-09T13:19:14.851Z,7.97
2024-05-09T13:21:48.054Z,8.18
2024-05-09T13:24:15.656Z,5.10
2024-05-09T13:26:45.663Z,13.43
2024-05-09T13:29:16.410Z,8.52
2024-05-09T13:31:46.740Z,8.57
2024-05-09T13:34:16.887Z,10.10
2024-05-09T13:36:44.812Z,8.18
2024-05-09T13:39:15.022Z,10.13
2024-05-09T13:41:42.789Z,7.85
2024-05-09T13:44:13.485Z,13.88
2024-05-09T13:46:45.677Z,8.48
2024-05-09T13:49:17.124Z,6.05
2024-05-09T13:51:45.000Z,4.88
2024-05-09T13:54:16.724Z,5.65
2024-05-09T13:56:45.690Z,23.00
2024-05-09T13:59:15.911Z,5.93
2024-05-09T14:01:46.166Z,6.00
2024-05-09T14:04:17.075Z,5.63
2024-05-09T14:06:44.733Z,8.30
2024-05-09T14:09:15.160Z,10.13
2024-05-09T14:11:42.910Z,7.95
2024-05-09T14:14:15.584Z,13.65
2024-05-09T14:16:46.299Z,8.13
2024-05-09T14:19:16.735Z,9.07
2024-05-09T14:21:47.843Z,7.82
2024-05-09T14:24:18.133Z,8.45
2024-05-09T14:26:45.869Z,8.27
2024-05-09T14:29:15.950Z,9.77
2024-05-09T14:31:46.429Z,10.32
2024-05-09T14:34:18.462Z,8.25
2024-05-09T14:36:46.078Z,8.45
2024-05-09T14:39:16.401Z,8.23
2024-05-09T14:41:43.896Z,8.30
2024-05-09T14:44:14.303Z,6.47
2024-05-09T14:46:42.549Z,10.48
2024-05-09T14:49:15.828Z,18.85
2024-05-09T14:51:47.514Z,5.70
2024-05-09T14:54:18.072Z,5.07
2024-05-09T14:56:45.491Z,7.72
2024-05-09T14:59:15.734Z,7.88
2024-05-09T15:01:43.618Z,7.95
2024-05-09T15:06:48.751Z,5.38
2024-05-09T15:09:18.891Z,8.60
2024-05-09T15:11:47.753Z,12.98
2024-05-09T15:14:18.255Z,5.00
2024-05-09T15:16:45.880Z,4.55
2024-05-09T15:19:18.974Z,10.48
2024-05-09T15:21:46.761Z,5.78
2024-05-09T15:24:17.314Z,25.48
2024-05-09T15:26:45.032Z,7.57
2024-05-09T15:29:15.107Z,7.82
2024-05-09T15:31:42.661Z,6.40
2024-05-09T15:34:13.015Z,5.35
2024-05-09T15:36:43.501Z,20.90
2024-05-09T15:39:13.438Z,9.20
2024-05-09T15:41:41.073Z,6.88
2024-05-09T15:44:11.248Z,7.53
2024-05-09T15:46:39.175Z,7.18
2024-05-09T15:49:09.383Z,6.85
2024-05-09T15:51:37.311Z,9.02
2024-05-09T15:54:10.369Z,31.10
2024-05-09T15:56:40.732Z,8.55
2024-05-09T15:59:10.994Z,7.70
2024-05-09T16:01:38.658Z,12.27
2024-05-09T16:04:13.257Z,6.25
2024-05-09T16:06:41.412Z,13.10
2024-05-09T16:09:14.025Z,9.48
2024-05-09T16:11:44.783Z,7.35
2024-05-09T16:14:16.158Z,7.80
2024-05-09T16:16:43.815Z,8.00
2024-05-09T16:19:14.404Z,6.00
2024-05-09T16:21:42.007Z,7.85
2024-05-09T16:24:14.842Z,7.80
2024-05-09T16:26:43.814Z,9.68
2024-05-09T16:29:14.124Z,16.13
2024-05-09T16:31:41.589Z,8.35
2024-05-09T16:34:14.810Z,8.45
2024-05-09T16:36:46.777Z,8.95
2024-05-09T16:39:19.505Z,10.70
2024-05-09T16:41:46.961Z,9.90
2024-05-09T16:44:17.246Z,11.23
2024-05-09T16:46:47.971Z,8.93
2024-05-09T16:49:18.429Z,8.80
2024-05-09T16:51:46.118Z,10.15
2024-05-09T16:54:18.864Z,8.05
2024-05-09T16:56:46.510Z,8.80
2024-05-09T16:59:16.686Z,9.30
2024-05-09T17:01:44.456Z,18.55
2024-05-09T17:04:14.701Z,9.27
2024-05-09T17:06:42.436Z,18.42
2024-05-09T17:09:15.600Z,7.68
2024-05-09T17:11:50.890Z,10.65
2024-05-09T17:14:23.861Z,8.18
2024-05-09T17:16:54.120Z,8.07
2024-05-09T17:19:24.399Z,9.55
2024-05-09T17:21:52.323Z,8.82
2024-05-09T17:24:22.743Z,8.18
2024-05-09T17:26:53.146Z,6.97
2024-05-09T17:29:23.141Z,20.60
2024-05-09T17:31:50.579Z,7.13
2024-05-09T17:34:21.025Z,9.57
2024-05-09T17:36:48.476Z,8.98
2024-05-09T17:39:18.968Z,14.23
2024-05-09T17:41:46.316Z,7.57
2024-05-09T17:44:19.132Z,7.75
2024-05-09T17:46:49.835Z,9.30
2024-05-09T17:49:17.670Z,7.32
2024-05-09T17:51:54.737Z,7.68
2024-05-09T17:54:22.246Z,7.03
2024-05-09T17:56:53.379Z,6.93
2024-05-09T17:59:24.294Z,10.38
2024-05-09T18:01:54.642Z,8.77
2024-05-09T18:04:22.535Z,9.48
2024-05-09T18:06:52.787Z,7.93
2024-05-09T18:09:21.000Z,7.90
2024-05-09T18:11:51.543Z,6.68
2024-05-09T18:14:19.087Z,6.28
2024-05-09T18:16:52.020Z,7.72
2024-05-09T18:19:19.876Z,8.63
2024-05-09T18:21:51.685Z,7.28
2024-05-09T18:24:22.045Z,8.52
2024-05-09T18:26:52.316Z,8.38
2024-05-09T18:29:22.203Z,6.03
2024-05-09T18:31:56.203Z,7.05
2024-05-09T18:34:23.726Z,9.68
2024-05-09T18:36:54.041Z,6.80
2024-05-09T18:39:21.442Z,9.63
2024-05-09T18:41:51.639Z,7.40
2024-05-09T18:44:19.185Z,6.43
2024-05-09T18:46:58.006Z,8.88
2024-05-09T18:49:25.541Z,8.45
2024-05-09T18:51:55.801Z,11.40
2024-05-09T18:54:26.064Z,10.90
2024-05-09T18:56:53.429Z,7.82
2024-05-09T18:59:23.713Z,7.07
2024-05-09T19:01:56.664Z,7.03
2024-05-09T19:04:26.881Z,9.57
2024-05-09T19:06:54.873Z,8.68
2024-05-09T19:09:25.241Z,9.13
2024-05-09T19:11:52.904Z,9.82
2024-05-09T19:14:24.714Z,8.32
2024-05-09T19:16:57.924Z,11.50
2024-05-09T19:19:31.380Z,9.43
2024-05-09T19:21:59.357Z,8.40
2024-05-09T19:24:29.798Z,11.70
2024-05-09T19:26:57.319Z,9.65
2024-05-09T19:29:28.010Z,9.68
2024-05-09T19:31:58.221Z,10.80
2024-05-09T19:34:28.273Z,8.50
2024-05-09T19:36:55.644Z,7.80
2024-05-09T19:39:25.990Z,6.72
2024-05-09T19:41:53.774Z,8.75
2024-05-09T19:44:27.045Z,10.40
2024-05-09T19:46:57.531Z,9.15
2024-05-09T19:49:27.722Z,10.65
2024-05-09T19:51:55.412Z,14.10
2024-05-09T19:54:25.654Z,14.55
2024-05-09T19:56:53.983Z,14.65
2024-05-09T19:59:24.065Z,15.90
2024-05-09T20:01:52.228Z,16.85
2024-05-09T20:04:25.165Z,16.45
2024-05-09T20:06:53.363Z,15.43
2024-05-09T20:09:23.577Z,19.60
2024-05-09T20:11:51.219Z,21.27
2024-05-09T20:14:21.283Z,22.80
2024-05-09T20:16:49.350Z,29.17
2024-05-09T20:19:19.742Z,16.92
2024-05-09T20:21:50.040Z,22.20
2024-05-09T20:24:20.225Z,20.52
2024-05-09T20:26:47.911Z,16.77
2024-05-09T20:29:17.949Z,14.90
2024-05-09T20:31:49.537Z,16.77
2024-05-09T20:34:19.746Z,13.10
2024-05-09T20:36:49.882Z,14.82
2024-05-09T20:39:21.383Z,12.43
2024-05-09T20:41:48.917Z,15.85
2024-05-09T20:44:19.301Z,12.77
2024-05-09T20:46:46.696Z,14.32
2024-05-09T20:49:17.776Z,12.75
2024-05-09T20:51:45.395Z,17.45
2024-05-09T20:54:18.195Z,14.18
2024-05-09T20:56:45.814Z,11.00
2024-05-09T20:59:18.700Z,12.90
2024-05-09T21:01:49.726Z,16.33
2024-05-09T21:04:20.318Z,12.75
2024-05-09T21:06:48.049Z,15.30
2024-05-09T21:09:25.501Z,14.18
2024-05-09T21:11:53.244Z,12.82
2024-05-09T21:14:23.343Z,11.68
2024-05-09T21:16:51.247Z,13.30
2024-05-09T21:19:21.652Z,12.82
2024-05-09T21:21:50.681Z,13.77
2024-05-09T21:24:24.593Z,10.95
2024-05-09T21:26:52.015Z,11.05
2024-05-09T21:29:21.968Z,10.90
2024-05-09T21:31:50.479Z,9.77
2024-05-09T21:34:30.297Z,10.98
2024-05-09T21:36:58.350Z,14.50
2024-05-09T21:39:33.258Z,18.83
2024-05-09T21:42:01.952Z,12.88
2024-05-09T21:44:32.979Z,12.02
2024-05-09T21:47:00.944Z,12.35
2024-05-09T21:49:31.259Z,11.40
2024-05-09T21:51:58.987Z,12.25
2024-05-09T21:54:31.852Z,14.10
2024-05-09T21:56:59.557Z,9.93
2024-05-09T21:59:29.805Z,11.73
2024-05-09T22:01:57.717Z,15.15
2024-05-09T22:04:28.125Z,12.77
2024-05-09T22:06:55.811Z,12.60
2024-05-09T22:09:25.950Z,10.98
2024-05-09T22:11:57.901Z,12.57
2024-05-09T22:14:28.464Z,13.77
2024-05-09T22:16:56.158Z,11.02
2024-05-09T22:19:26.414Z,11.88
2024-05-09T22:21:55.624Z,12.85
2024-05-09T22:24:25.874Z,12.88
2024-05-09T22:26:56.000Z,13.30
2024-05-09T22:29:26.231Z,11.93
2024-05-09T22:31:53.789Z,15.05
2024-05-09T22:34:24.429Z,13.02
2024-05-09T22:36:52.043Z,16.17
2024-05-09T22:39:25.492Z,9.50
2024-05-09T22:41:56.431Z,10.52
2024-05-09T22:44:26.769Z,12.27
2024-05-09T22:46:54.353Z,12.90
2024-05-09T22:49:24.611Z,11.90
2024-05-09T22:51:53.742Z,11.00
2024-05-09T22:54:23.941Z,11.20
2024-05-09T22:56:51.329Z,11.52
2024-05-09T22:59:24.076Z,13.48
2024-05-09T23:01:51.533Z,11.23
2024-05-09T23:04:22.043Z,12.60
2024-05-09T23:06:51.906Z,11.80
2024-05-09T23:09:22.317Z,11.80
2024-05-09T23:11:49.864Z,12.82
2024-05-09T23:14:19.870Z,11.63
2024-05-09T23:16:50.431Z,11.15
2024-05-09T23:19:21.091Z,10.50
2024-05-09T23:21:48.787Z,11.18
2024-05-09T23:24:18.939Z,13.55
2024-05-09T23:26:46.339Z,13.48
2024-05-09T23:29:16.490Z,10.07
2024-05-09T23:31:43.969Z,10.82
2024-05-09T23:34:17.875Z,10.35
2024-05-09T23:36:45.716Z,9.77
2024-05-09T23:39:15.642Z,13.05
2024-05-09T23:41:43.005Z,12.27
2024-05-09T23:44:13.037Z,12.68
2024-05-09T23:46:43.579Z,10.43
2024-05-09T23:49:16.442Z,11.48
2024-05-09T23:51:44.026Z,12.23
2024-05-09T23:54:14.116Z,11.57
2024-05-09T23:56:41.724Z,13.55
2024-05-09T23:59:11.805Z,11.20
